Pacific Raider — S6GS9 — position and weather

sailwx.info

Track history (hours):
 
Tides and Currents Weather Stations Pressure Air Temp Water Temp Dewpoint Dewpoint Depression Visibility Wind Speed Wind Dir Waves Ship Positions

Pacific Raider

Last reported at 2017-Sep-16 10:59 UTC. Time now 2017-Nov-21 04:16 UTC.
Position N 04°27' W 003°01'.
Warning: this ship's position is months out of date.

Length 64 m; draft 4.2 m.

Type: Tug. MMSI: 563688000.

Date/timePositionNaut miles runAvg speedWind from/ knotsBaromVisibWave heightAir tempDewpointWater temp
2017-Sep-16 10:59N 04°27' W 003°01'3 5.2
2017-Sep-16 10:28N 04°26' W 002°58'3 5.1
2017-Sep-16 09:56N 04°26' W 002°55'2 5.2
2017-Sep-16 09:29N 04°26' W 002°53'3 5.2
2017-Sep-16 08:59N 04°26' W 002°51'3 5.9
2017-Sep-16 08:28N 04°25' W 002°48'3 6.1
2017-Sep-16 08:00N 04°25' W 002°45'3 6.0
2017-Sep-16 07:30N 04°25' W 002°42'3 5.9
2017-Sep-16 06:59N 04°25' W 002°39'3 6.0
2017-Sep-16 06:29N 04°24' W 002°36'3 6.6
2017-Sep-16 05:59N 04°24' W 002°32'3 7.2
2017-Sep-16 05:30N 04°25' W 002°29'4 7.0
2017-Sep-16 05:00N 04°26' W 002°26'4 7.0
2017-Sep-16 04:30N 04°28' W 002°23'4 7.2
2017-Sep-16 03:59N 04°30' W 002°20'4 7.4
2017-Sep-16 03:29N 04°31' W 002°16'4 7.2
2017-Sep-16 02:59N 04°33' W 002°13'4 7.5
2017-Sep-16 02:30N 04°34' W 002°09'4 7.3
2017-Sep-16 01:58N 04°36' W 002°06'4 7.5
2017-Sep-16 01:29N 04°37' W 002°02'4 7.4
2017-Sep-16 00:58N 04°39' W 001°59'10 0.4
2017-Sep-15 00:51N 04°35' W 002°09'2 6.0
2017-Sep-15 00:29N 04°35' W 002°11'3 5.9
2017-Sep-15 00:00N 04°34' W 002°14'3 6.1
2017-Sep-14 23:30N 04°33' W 002°16'3 5.9
2017-Sep-14 22:59N 04°32' W 002°19'3 5.2
2017-Sep-14 22:29N 04°31' W 002°22'3 5.5
2017-Sep-14 21:59N 04°30' W 002°25'3 5.4
2017-Sep-14 21:30N 04°29' W 002°27'3 5.7
2017-Sep-14 21:00N 04°28' W 002°29'3 5.3
2017-Sep-14 20:29N 04°27' W 002°32'2 3.4
2017-Sep-14 19:59N 04°27' W 002°34'0 0.6
2017-Sep-14 19:29N 04°27' W 002°34'0 0.5
2017-Sep-14 19:00N 04°27' W 002°34'0 0.9
2017-Sep-14 18:30N 04°27' W 002°34'0 0.8
2017-Sep-14 17:59N 04°27' W 002°34'0 0.6
2017-Sep-14 17:25N 04°27' W 002°34'0 0.6
2017-Sep-14 16:59N 04°27' W 002°34'0 0.2
2017-Sep-14 16:30N 04°27' W 002°34'0 0.8
2017-Sep-14 16:00N 04°27' W 002°34'0 0.5
2017-Sep-14 15:30N 04°27' W 002°34'0 0.5
2017-Sep-14 14:59N 04°28' W 002°34'0 0.8
2017-Sep-14 14:29N 04°27' W 002°34'0 0.1
2017-Sep-14 14:00N 04°27' W 002°34'0 0.2
2017-Sep-14 13:29N 04°28' W 002°34'0 0.4
2017-Sep-14 12:59N 04°28' W 002°34'0 0.7
2017-Sep-14 12:30N 04°28' W 002°34'0 1.0
2017-Sep-14 11:59N 04°29' W 002°34'0 0.4
2017-Sep-14 11:27N 04°28' W 002°34'0 0.5
2017-Sep-14 11:00N 04°28' W 002°34'0 0.5
2017-Sep-14 10:30N 04°29' W 002°34'0 0.8
2017-Sep-14 10:00N 04°28' W 002°34'1 1.1
2017-Sep-14 09:29N 04°28' W 002°34'0 0.3
2017-Sep-14 08:59N 04°28' W 002°34'0 0.5
2017-Sep-14 08:30N 04°28' W 002°34'0 0.7
2017-Sep-14 08:00N 04°28' W 002°34'0 0.7
2017-Sep-14 07:30N 04°29' W 002°35'0 0.7
2017-Sep-14 07:00N 04°29' W 002°35'0 0.2
2017-Sep-14 06:29N 04°29' W 002°35'0 0.8
2017-Sep-14 05:59N 04°29' W 002°35'0 0.6
2017-Sep-14 05:30N 04°28' W 002°35'0 0.5
2017-Sep-14 05:00N 04°28' W 002°34'0 0.5
2017-Sep-14 04:30N 04°28' W 002°34'0 0.5
2017-Sep-14 03:59N 04°28' W 002°34'0 0.6
2017-Sep-14 03:29N 04°28' W 002°34'0 0.4
2017-Sep-14 02:59N 04°28' W 002°34'0 0.3
2017-Sep-14 02:30N 04°28' W 002°34'0 0.7
2017-Sep-14 02:00N 04°29' W 002°34'0 0.5
2017-Sep-14 01:29N 04°29' W 002°34'0 0.6
2017-Sep-14 00:59N 04°29' W 002°34'0 0.4
2017-Sep-14 00:30N 04°29' W 002°34'0 0.7
2017-Sep-14 00:00N 04°30' W 002°34'0 0.1
2017-Sep-13 23:29N 04°30' W 002°34'1 1.4
2017-Sep-13 23:01N 04°29' W 002°34'0 0.6
2017-Sep-13 22:30N 04°29' W 002°34'0 0.1
2017-Sep-13 22:00N 04°29' W 002°34'0 0.6
2017-Sep-13 21:30N 04°30' W 002°34'0 0.5
2017-Sep-13 20:59N 04°30' W 002°34'0 0.2
2017-Sep-13 20:30N 04°30' W 002°34'1 1.5
2017-Sep-13 20:00N 04°29' W 002°34'1 1.0
2017-Sep-13 19:29N 04°28' W 002°34'0 0.6
2017-Sep-13 19:01N 04°29' W 002°34'0 0.7
2017-Sep-13 18:30N 04°29' W 002°35'1 1.1
2017-Sep-13 18:00N 04°28' W 002°34'1 1.3
2017-Sep-13 17:28N 04°28' W 002°34'1 1.6
2017-Sep-13 16:59N 04°27' W 002°33'0 0.6
2017-Sep-13 16:29N 04°27' W 002°34'0 0.9
2017-Sep-13 15:59N 04°27' W 002°34'0 0.8
2017-Sep-13 15:29N 04°28' W 002°34'0 0.6
2017-Sep-13 14:59N 04°28' W 002°34'0 0.7
2017-Sep-13 14:30N 04°28' W 002°34'0 0.8
2017-Sep-13 14:00N 04°29' W 002°35'0 0.8
2017-Sep-13 13:29N 04°29' W 002°35'0 0.7
2017-Sep-13 13:00N 04°29' W 002°35'0 0.8
2017-Sep-13 12:30N 04°29' W 002°35'0 0.2
2017-Sep-13 11:59N 04°29' W 002°35'1 1.2
2017-Sep-13 11:25N 04°29' W 002°35'1 2.2
2017-Sep-13 11:00N 04°28' W 002°35'0 0.8
2017-Sep-13 10:30N 04°28' W 002°35'0 0.8
2017-Sep-13 09:59N 04°28' W 002°36'0 0.3
2017-Sep-13 09:29N 04°28' W 002°35'0 0.9
2017-Sep-13 08:59N 04°28' W 002°35'0 0.8
2017-Sep-13 08:30N 04°28' W 002°35'0 0.0
2017-Sep-13 07:59N 04°28' W 002°35'0 0.2
2017-Sep-13 07:28N 04°28' W 002°35'0 0.4
2017-Sep-13 07:00N 04°28' W 002°35'0 0.7
2017-Sep-13 06:30N 04°29' W 002°35'0 0.6
2017-Sep-13 05:59N 04°29' W 002°35'0 0.5
2017-Sep-13 05:29N 04°29' W 002°35'0 0.4
2017-Sep-13 04:59N 04°29' W 002°35'0 0.2
2017-Sep-13 04:29N 04°29' W 002°35'1 1.2
2017-Sep-13 04:00N 04°29' W 002°35'1 1.3
2017-Sep-13 03:24N 04°28' W 002°34'1 1.4
2017-Sep-13 02:37N 04°27' W 002°34'0 0.8
2017-Sep-13 02:29N 04°27' W 002°34'0 0.2
2017-Sep-13 01:59N 04°27' W 002°34'0 0.5
2017-Sep-13 01:29N 04°27' W 002°34'0 0.5
2017-Sep-13 01:00N 04°28' W 002°34'0 0.4
2017-Sep-13 00:30N 04°28' W 002°34'0 0.8
2017-Sep-13 00:00N 04°28' W 002°35'0 0.9
2017-Sep-12 23:29N 04°28' W 002°35'0 0.5
2017-Sep-12 22:59N 04°29' W 002°35'1 1.5
2017-Sep-12 22:30N 04°28' W 002°35'1 1.7
2017-Sep-12 21:59N 04°27' W 002°34'0 0.3
2017-Sep-12 21:29N 04°27' W 002°34'0 0.6
2017-Sep-12 20:59N 04°28' W 002°34'0 0.7
2017-Sep-12 20:29N 04°28' W 002°34'0 0.5
2017-Sep-12 19:59N 04°28' W 002°35'0 0.6
2017-Sep-12 19:30N 04°28' W 002°35'1 1.0
2017-Sep-12 19:00N 04°29' W 002°35'0 0.2
2017-Sep-12 18:30N 04°29' W 002°35'0 0.5
2017-Sep-12 17:59N 04°28' W 002°35'0 0.9
2017-Sep-12 17:30N 04°28' W 002°35'0 0.6
2017-Sep-12 17:00N 04°28' W 002°34'0 0.5
2017-Sep-12 16:30N 04°28' W 002°34'0 0.5
2017-Sep-12 15:59N 04°28' W 002°34'0 0.3
2017-Sep-12 15:29N 04°28' W 002°34'1 1.0
2017-Sep-12 14:59N 04°28' W 002°34'1 1.5
2017-Sep-12 14:29N 04°29' W 002°35'0 0.6
2017-Sep-12 14:00N 04°29' W 002°35'1 1.1
2017-Sep-12 13:30N 04°29' W 002°34'0 0.6
2017-Sep-12 13:00N 04°29' W 002°34'0 0.4
2017-Sep-12 12:29N 04°29' W 002°35'0 0.1
2017-Sep-12 11:59N 04°29' W 002°35'1 1.2
2017-Sep-12 11:29N 04°29' W 002°35'0 0.9
2017-Sep-12 11:00N 04°29' W 002°36'0 0.1
2017-Sep-12 10:30N 04°29' W 002°36'1 1.4
2017-Sep-12 09:59N 04°29' W 002°35'1 2.1
2017-Sep-12 09:30N 04°28' W 002°35'1 1.5
2017-Sep-12 08:58N 04°28' W 002°36'0 0.9
2017-Sep-12 08:29N 04°28' W 002°35'0 0.9
2017-Sep-12 07:59N 04°28' W 002°35'1 1.1
2017-Sep-12 07:30N 04°28' W 002°34'0 0.7
2017-Sep-12 07:00N 04°28' W 002°34'0 0.7
2017-Sep-12 06:29N 04°28' W 002°34'0 0.7
2017-Sep-12 05:59N 04°29' W 002°34'0 0.4
2017-Sep-12 05:30N 04°29' W 002°34'0 0.6
2017-Sep-12 04:59N 04°29' W 002°34'0 0.5
2017-Sep-12 04:29N 04°29' W 002°34'0 0.6
2017-Sep-12 03:59N 04°29' W 002°34'0 0.5
2017-Sep-12 03:30N 04°29' W 002°34'0 0.4
2017-Sep-12 03:00N 04°29' W 002°35'0 0.3
2017-Sep-12 02:30N 04°29' W 002°35'0 0.3
2017-Sep-12 01:59N 04°29' W 002°35'0 0.4
2017-Sep-12 01:29N 04°29' W 002°35'0 0.6
2017-Sep-12 00:57N 04°29' W 002°35'0 0.5
2017-Sep-12 00:27N 04°29' W 002°36'0 0.4
2017-Sep-11 23:59N 04°29' W 002°35'1 1.2
2017-Sep-11 23:29N 04°29' W 002°35'1 2.0
2017-Sep-11 23:00N 04°30' W 002°34'0 1.0
2017-Sep-11 22:30N 04°30' W 002°34'0 0.2
2017-Sep-11 22:00N 04°30' W 002°34'0 0.1
2017-Sep-11 21:29N 04°30' W 002°34'0 0.2
2017-Sep-11 20:59N 04°30' W 002°34'0 0.3
2017-Sep-11 20:30N 04°30' W 002°34'0 0.3
2017-Sep-11 20:00N 04°30' W 002°34'0 0.2
2017-Sep-11 19:29N 04°29' W 002°34'0 0.3
2017-Sep-11 18:59N 04°29' W 002°34'0 0.5
2017-Sep-11 18:29N 04°29' W 002°34'0 0.1
2017-Sep-11 18:00N 04°29' W 002°34'0 0.3
2017-Sep-11 17:30N 04°29' W 002°34'0 0.1
2017-Sep-11 17:00N 04°29' W 002°34'0 0.1
2017-Sep-11 16:29N 04°30' W 002°34'0 0.1
2017-Sep-11 15:59N 04°29' W 002°34'0 0.3
2017-Sep-11 15:30N 04°29' W 002°34'0 0.5
2017-Sep-11 15:00N 04°29' W 002°34'0 0.1
2017-Sep-11 14:29N 04°29' W 002°34'0 0.3
2017-Sep-11 13:59N 04°29' W 002°34'0 0.4
2017-Sep-11 13:25N 04°29' W 002°34'0 0.5
2017-Sep-11 12:59N 04°29' W 002°34'0 0.2
2017-Sep-11 12:30N 04°29' W 002°34'0 0.5
2017-Sep-11 12:00N 04°29' W 002°34'0 0.5
2017-Sep-11 11:29N 04°29' W 002°34'0 0.4
2017-Sep-11 10:59N 04°29' W 002°34'0 0.3
2017-Sep-11 10:30N 04°29' W 002°35'0 0.1
2017-Sep-11 10:00N 04°29' W 002°35'0 0.4
2017-Sep-11 09:29N 04°29' W 002°35'0 0.8
2017-Sep-11 08:59N 04°29' W 002°35'0 0.7
2017-Sep-11 08:29N 04°29' W 002°34'0 0.4
2017-Sep-11 08:00N 04°29' W 002°34'0 0.3
2017-Sep-11 07:30N 04°28' W 002°34'0 0.2
2017-Sep-11 06:59N 04°28' W 002°34'0 0.3
2017-Sep-11 06:29N 04°28' W 002°34'0 0.3
2017-Sep-11 05:59N 04°28' W 002°34'0 0.5
2017-Sep-11 05:30N 04°28' W 002°34'0 0.1
2017-Sep-11 05:00N 04°28' W 002°34'0 0.3
2017-Sep-11 04:30N 04°28' W 002°34'0 0.5
2017-Sep-11 03:59N 04°29' W 002°34'0 0.4
2017-Sep-11 03:29N 04°29' W 002°34'0 0.3
2017-Sep-11 02:58N 04°29' W 002°34'0 0.5
2017-Sep-11 02:30N 04°29' W 002°34'0 0.5
2017-Sep-11 01:59N 04°29' W 002°35'0 0.7
2017-Sep-11 01:30N 04°29' W 002°35'0 0.3
2017-Sep-11 01:00N 04°29' W 002°35'0 0.6
2017-Sep-11 00:30N 04°30' W 002°35'0 0.6
2017-Sep-10 23:59N 04°30' W 002°34'0 0.7
2017-Sep-10 23:30N 04°29' W 002°34'0 0.2
2017-Sep-10 23:00N 04°29' W 002°34'1 2.0
2017-Sep-10 22:29N 04°28' W 002°35'0 0.9
2017-Sep-10 21:59N 04°28' W 002°35'0 0.8
2017-Sep-10 21:30N 04°28' W 002°35'1 1.3
2017-Sep-10 21:00N 04°29' W 002°35'0 0.5
2017-Sep-10 20:30N 04°29' W 002°35'0 0.5
2017-Sep-10 19:59N 04°29' W 002°35'1 1.0
2017-Sep-10 19:29N 04°29' W 002°34'1 1.3
2017-Sep-10 18:58N 04°30' W 002°34'0 0.6
2017-Sep-10 18:30N 04°30' W 002°34'1 1.1
2017-Sep-10 18:00N 04°30' W 002°34'0 0.6
2017-Sep-10 17:30N 04°30' W 002°34'0 0.6
2017-Sep-10 16:57N 04°29' W 002°34'0 0.4
2017-Sep-10 16:29N 04°29' W 002°33'0 0.4
2017-Sep-10 15:59N 04°29' W 002°33'0 0.4
2017-Sep-10 15:30N 04°29' W 002°33'0 0.4
2017-Sep-10 15:00N 04°30' W 002°33'0 0.3
2017-Sep-10 13:59N 04°30' W 002°33'0 0.5
2017-Sep-10 13:29N 04°30' W 002°33'0 0.5
2017-Sep-10 13:00N 04°30' W 002°34'0 0.3
2017-Sep-10 12:30N 04°30' W 002°34'0 0.4
2017-Sep-10 12:00N 04°30' W 002°34'0 0.5
2017-Sep-10 11:30N 04°30' W 002°34'0 0.9
2017-Sep-10 10:59N 04°30' W 002°35'0 0.4
2017-Sep-10 10:29N 04°29' W 002°35'0 0.6
2017-Sep-10 09:59N 04°29' W 002°34'0 0.5
2017-Sep-10 09:25N 04°29' W 002°34'0 0.4
2017-Sep-10 08:59N 04°29' W 002°34'0 0.4
2017-Sep-10 08:29N 04°29' W 002°34'0 0.4
2017-Sep-10 08:00N 04°28' W 002°34'0 0.2
2017-Sep-10 07:30N 04°28' W 002°34'0 0.1
2017-Sep-10 06:58N 04°28' W 002°34'0 0.2
2017-Sep-10 06:30N 04°28' W 002°34'0 0.1
2017-Sep-10 05:59N 04°28' W 002°34'0 0.4
2017-Sep-10 05:31N 04°28' W 002°34'0 0.5
2017-Sep-10 05:00N 04°28' W 002°34'0 0.7
2017-Sep-10 04:30N 04°28' W 002°35'0 0.3
2017-Sep-10 03:59N 04°28' W 002°35'0 0.3
2017-Sep-10 03:27N 04°28' W 002°35'0 0.3
2017-Sep-10 03:01N 04°28' W 002°35'0 0.4
2017-Sep-10 02:30N 04°28' W 002°34'0 0.3
2017-Sep-10 02:00N 04°28' W 002°35'0 0.3
2017-Sep-10 01:30N 04°28' W 002°34'0 0.4
2017-Sep-10 01:00N 04°28' W 002°34'0 0.6
2017-Sep-10 00:29N 04°29' W 002°34'0 0.6
2017-Sep-09 23:59N 04°29' W 002°34'0 0.5
2017-Sep-09 23:29N 04°29' W 002°34'0 0.5
2017-Sep-09 23:00N 04°29' W 002°34'0 0.7
2017-Sep-09 22:30N 04°29' W 002°33'0 0.7
2017-Sep-09 21:59N 04°30' W 002°33'0 0.7
2017-Sep-09 21:31N 04°30' W 002°33'0 0.4
2017-Sep-09 21:00N 04°30' W 002°33'0 0.6
2017-Sep-09 20:30N 04°30' W 002°33'0 0.4
2017-Sep-09 20:00N 04°30' W 002°33'0 0.5
2017-Sep-09 19:29N 04°29' W 002°33'0 0.7
2017-Sep-09 18:59N 04°29' W 002°33'2 0.0
2017-Sep-08 02:12N 04°28' W 002°35'0 0.3
2017-Sep-08 01:58N 04°28' W 002°35'0 0.3
2017-Sep-08 01:29N 04°28' W 002°35'0 0.4
2017-Sep-08 01:00N 04°28' W 002°35'0 0.3
2017-Sep-08 00:30N 04°28' W 002°35'0 0.5
2017-Sep-08 00:00N 04°28' W 002°34'0 0.5
2017-Sep-07 23:29N 04°28' W 002°35'0 0.6
2017-Sep-07 22:59N 04°28' W 002°35'1 1.6
2017-Sep-07 22:30N 04°29' W 002°35'0 0.8
2017-Sep-07 21:59N 04°28' W 002°35'0 0.8
2017-Sep-07 21:29N 04°28' W 002°35'0 1.0
2017-Sep-07 20:59N 04°28' W 002°35'  
Track history (hours):
 
Tides and Currents Weather Stations Pressure Air Temp Water Temp Dewpoint Dewpoint Depression Visibility Wind Speed Wind Dir Waves Ship Positions

Pacific Raider

Last reported at 2017-Sep-16 10:59 UTC. Time now 2017-Nov-21 04:16 UTC.
Position N 04°27' W 003°01'.
Warning: this ship's position is months out of date.

Length 64 m; draft 4.2 m.

Type: Tug. MMSI: 563688000.

Date/timePositionNaut miles runAvg speedWind from/ knotsBaromVisibWave heightAir tempDewpointWater temp
2017-Sep-16 10:59N 04°27' W 003°01'3 5.2
2017-Sep-16 10:28N 04°26' W 002°58'3 5.1
2017-Sep-16 09:56N 04°26' W 002°55'2 5.2
2017-Sep-16 09:29N 04°26' W 002°53'3 5.2
2017-Sep-16 08:59N 04°26' W 002°51'3 5.9
2017-Sep-16 08:28N 04°25' W 002°48'3 6.1
2017-Sep-16 08:00N 04°25' W 002°45'3 6.0
2017-Sep-16 07:30N 04°25' W 002°42'3 5.9
2017-Sep-16 06:59N 04°25' W 002°39'3 6.0
2017-Sep-16 06:29N 04°24' W 002°36'3 6.6
2017-Sep-16 05:59N 04°24' W 002°32'3 7.2
2017-Sep-16 05:30N 04°25' W 002°29'4 7.0
2017-Sep-16 05:00N 04°26' W 002°26'4 7.0
2017-Sep-16 04:30N 04°28' W 002°23'4 7.2
2017-Sep-16 03:59N 04°30' W 002°20'4 7.4
2017-Sep-16 03:29N 04°31' W 002°16'4 7.2
2017-Sep-16 02:59N 04°33' W 002°13'4 7.5
2017-Sep-16 02:30N 04°34' W 002°09'4 7.3
2017-Sep-16 01:58N 04°36' W 002°06'4 7.5
2017-Sep-16 01:29N 04°37' W 002°02'4 7.4
2017-Sep-16 00:58N 04°39' W 001°59'10 0.4
2017-Sep-15 00:51N 04°35' W 002°09'2 6.0
2017-Sep-15 00:29N 04°35' W 002°11'3 5.9
2017-Sep-15 00:00N 04°34' W 002°14'3 6.1
2017-Sep-14 23:30N 04°33' W 002°16'3 5.9
2017-Sep-14 22:59N 04°32' W 002°19'3 5.2
2017-Sep-14 22:29N 04°31' W 002°22'3 5.5
2017-Sep-14 21:59N 04°30' W 002°25'3 5.4
2017-Sep-14 21:30N 04°29' W 002°27'3 5.7
2017-Sep-14 21:00N 04°28' W 002°29'3 5.3
2017-Sep-14 20:29N 04°27' W 002°32'2 3.4
2017-Sep-14 19:59N 04°27' W 002°34'0 0.6
2017-Sep-14 19:29N 04°27' W 002°34'0 0.5
2017-Sep-14 19:00N 04°27' W 002°34'0 0.9
2017-Sep-14 18:30N 04°27' W 002°34'0 0.8
2017-Sep-14 17:59N 04°27' W 002°34'0 0.6
2017-Sep-14 17:25N 04°27' W 002°34'0 0.6
2017-Sep-14 16:59N 04°27' W 002°34'0 0.2
2017-Sep-14 16:30N 04°27' W 002°34'0 0.8
2017-Sep-14 16:00N 04°27' W 002°34'0 0.5
2017-Sep-14 15:30N 04°27' W 002°34'0 0.5
2017-Sep-14 14:59N 04°28' W 002°34'0 0.8
2017-Sep-14 14:29N 04°27' W 002°34'0 0.1
2017-Sep-14 14:00N 04°27' W 002°34'0 0.2
2017-Sep-14 13:29N 04°28' W 002°34'0 0.4
2017-Sep-14 12:59N 04°28' W 002°34'0 0.7
2017-Sep-14 12:30N 04°28' W 002°34'0 1.0
2017-Sep-14 11:59N 04°29' W 002°34'0 0.4
2017-Sep-14 11:27N 04°28' W 002°34'0 0.5
2017-Sep-14 11:00N 04°28' W 002°34'0 0.5
2017-Sep-14 10:30N 04°29' W 002°34'0 0.8
2017-Sep-14 10:00N 04°28' W 002°34'1 1.1
2017-Sep-14 09:29N 04°28' W 002°34'0 0.3
2017-Sep-14 08:59N 04°28' W 002°34'0 0.5
2017-Sep-14 08:30N 04°28' W 002°34'0 0.7
2017-Sep-14 08:00N 04°28' W 002°34'0 0.7
2017-Sep-14 07:30N 04°29' W 002°35'0 0.7
2017-Sep-14 07:00N 04°29' W 002°35'0 0.2
2017-Sep-14 06:29N 04°29' W 002°35'0 0.8
2017-Sep-14 05:59N 04°29' W 002°35'0 0.6
2017-Sep-14 05:30N 04°28' W 002°35'0 0.5
2017-Sep-14 05:00N 04°28' W 002°34'0 0.5
2017-Sep-14 04:30N 04°28' W 002°34'0 0.5
2017-Sep-14 03:59N 04°28' W 002°34'0 0.6
2017-Sep-14 03:29N 04°28' W 002°34'0 0.4
2017-Sep-14 02:59N 04°28' W 002°34'0 0.3
2017-Sep-14 02:30N 04°28' W 002°34'0 0.7
2017-Sep-14 02:00N 04°29' W 002°34'0 0.5
2017-Sep-14 01:29N 04°29' W 002°34'0 0.6
2017-Sep-14 00:59N 04°29' W 002°34'0 0.4
2017-Sep-14 00:30N 04°29' W 002°34'0 0.7
2017-Sep-14 00:00N 04°30' W 002°34'0 0.1
2017-Sep-13 23:29N 04°30' W 002°34'1 1.4
2017-Sep-13 23:01N 04°29' W 002°34'0 0.6
2017-Sep-13 22:30N 04°29' W 002°34'0 0.1
2017-Sep-13 22:00N 04°29' W 002°34'0 0.6
2017-Sep-13 21:30N 04°30' W 002°34'0 0.5
2017-Sep-13 20:59N 04°30' W 002°34'0 0.2
2017-Sep-13 20:30N 04°30' W 002°34'1 1.5
2017-Sep-13 20:00N 04°29' W 002°34'1 1.0
2017-Sep-13 19:29N 04°28' W 002°34'0 0.6
2017-Sep-13 19:01N 04°29' W 002°34'0 0.7
2017-Sep-13 18:30N 04°29' W 002°35'1 1.1
2017-Sep-13 18:00N 04°28' W 002°34'1 1.3
2017-Sep-13 17:28N 04°28' W 002°34'1 1.6
2017-Sep-13 16:59N 04°27' W 002°33'0 0.6
2017-Sep-13 16:29N 04°27' W 002°34'0 0.9
2017-Sep-13 15:59N 04°27' W 002°34'0 0.8
2017-Sep-13 15:29N 04°28' W 002°34'0 0.6
2017-Sep-13 14:59N 04°28' W 002°34'0 0.7
2017-Sep-13 14:30N 04°28' W 002°34'0 0.8
2017-Sep-13 14:00N 04°29' W 002°35'0 0.8
2017-Sep-13 13:29N 04°29' W 002°35'0 0.7
2017-Sep-13 13:00N 04°29' W 002°35'0 0.8
2017-Sep-13 12:30N 04°29' W 002°35'0 0.2
2017-Sep-13 11:59N 04°29' W 002°35'1 1.2
2017-Sep-13 11:25N 04°29' W 002°35'1 2.2
2017-Sep-13 11:00N 04°28' W 002°35'0 0.8
2017-Sep-13 10:30N 04°28' W 002°35'0 0.8
2017-Sep-13 09:59N 04°28' W 002°36'0 0.3
2017-Sep-13 09:29N 04°28' W 002°35'0 0.9
2017-Sep-13 08:59N 04°28' W 002°35'0 0.8
2017-Sep-13 08:30N 04°28' W 002°35'0 0.0
2017-Sep-13 07:59N 04°28' W 002°35'0 0.2
2017-Sep-13 07:28N 04°28' W 002°35'0 0.4
2017-Sep-13 07:00N 04°28' W 002°35'0 0.7
2017-Sep-13 06:30N 04°29' W 002°35'0 0.6
2017-Sep-13 05:59N 04°29' W 002°35'0 0.5
2017-Sep-13 05:29N 04°29' W 002°35'0 0.4
2017-Sep-13 04:59N 04°29' W 002°35'0 0.2
2017-Sep-13 04:29N 04°29' W 002°35'1 1.2
2017-Sep-13 04:00N 04°29' W 002°35'1 1.3
2017-Sep-13 03:24N 04°28' W 002°34'1 1.4
2017-Sep-13 02:37N 04°27' W 002°34'0 0.8
2017-Sep-13 02:29N 04°27' W 002°34'0 0.2
2017-Sep-13 01:59N 04°27' W 002°34'0 0.5
2017-Sep-13 01:29N 04°27' W 002°34'0 0.5
2017-Sep-13 01:00N 04°28' W 002°34'0 0.4
2017-Sep-13 00:30N 04°28' W 002°34'0 0.8
2017-Sep-13 00:00N 04°28' W 002°35'0 0.9
2017-Sep-12 23:29N 04°28' W 002°35'0 0.5
2017-Sep-12 22:59N 04°29' W 002°35'1 1.5
2017-Sep-12 22:30N 04°28' W 002°35'1 1.7
2017-Sep-12 21:59N 04°27' W 002°34'0 0.3
2017-Sep-12 21:29N 04°27' W 002°34'0 0.6
2017-Sep-12 20:59N 04°28' W 002°34'0 0.7
2017-Sep-12 20:29N 04°28' W 002°34'0 0.5
2017-Sep-12 19:59N 04°28' W 002°35'0 0.6
2017-Sep-12 19:30N 04°28' W 002°35'1 1.0
2017-Sep-12 19:00N 04°29' W 002°35'0 0.2
2017-Sep-12 18:30N 04°29' W 002°35'0 0.5
2017-Sep-12 17:59N 04°28' W 002°35'0 0.9
2017-Sep-12 17:30N 04°28' W 002°35'0 0.6
2017-Sep-12 17:00N 04°28' W 002°34'0 0.5
2017-Sep-12 16:30N 04°28' W 002°34'0 0.5
2017-Sep-12 15:59N 04°28' W 002°34'0 0.3
2017-Sep-12 15:29N 04°28' W 002°34'1 1.0
2017-Sep-12 14:59N 04°28' W 002°34'1 1.5
2017-Sep-12 14:29N 04°29' W 002°35'0 0.6
2017-Sep-12 14:00N 04°29' W 002°35'1 1.1
2017-Sep-12 13:30N 04°29' W 002°34'0 0.6
2017-Sep-12 13:00N 04°29' W 002°34'0 0.4
2017-Sep-12 12:29N 04°29' W 002°35'0 0.1
2017-Sep-12 11:59N 04°29' W 002°35'1 1.2
2017-Sep-12 11:29N 04°29' W 002°35'0 0.9
2017-Sep-12 11:00N 04°29' W 002°36'0 0.1
2017-Sep-12 10:30N 04°29' W 002°36'1 1.4
2017-Sep-12 09:59N 04°29' W 002°35'1 2.1
2017-Sep-12 09:30N 04°28' W 002°35'1 1.5
2017-Sep-12 08:58N 04°28' W 002°36'0 0.9
2017-Sep-12 08:29N 04°28' W 002°35'0 0.9
2017-Sep-12 07:59N 04°28' W 002°35'1 1.1
2017-Sep-12 07:30N 04°28' W 002°34'0 0.7
2017-Sep-12 07:00N 04°28' W 002°34'0 0.7
2017-Sep-12 06:29N 04°28' W 002°34'0 0.7
2017-Sep-12 05:59N 04°29' W 002°34'0 0.4
2017-Sep-12 05:30N 04°29' W 002°34'0 0.6
2017-Sep-12 04:59N 04°29' W 002°34'0 0.5
2017-Sep-12 04:29N 04°29' W 002°34'0 0.6
2017-Sep-12 03:59N 04°29' W 002°34'0 0.5
2017-Sep-12 03:30N 04°29' W 002°34'0 0.4
2017-Sep-12 03:00N 04°29' W 002°35'0 0.3
2017-Sep-12 02:30N 04°29' W 002°35'0 0.3
2017-Sep-12 01:59N 04°29' W 002°35'0 0.4
2017-Sep-12 01:29N 04°29' W 002°35'0 0.6
2017-Sep-12 00:57N 04°29' W 002°35'0 0.5
2017-Sep-12 00:27N 04°29' W 002°36'0 0.4
2017-Sep-11 23:59N 04°29' W 002°35'1 1.2
2017-Sep-11 23:29N 04°29' W 002°35'1 2.0
2017-Sep-11 23:00N 04°30' W 002°34'0 1.0
2017-Sep-11 22:30N 04°30' W 002°34'0 0.2
2017-Sep-11 22:00N 04°30' W 002°34'0 0.1
2017-Sep-11 21:29N 04°30' W 002°34'0 0.2
2017-Sep-11 20:59N 04°30' W 002°34'0 0.3
2017-Sep-11 20:30N 04°30' W 002°34'0 0.3
2017-Sep-11 20:00N 04°30' W 002°34'0 0.2
2017-Sep-11 19:29N 04°29' W 002°34'0 0.3
2017-Sep-11 18:59N 04°29' W 002°34'0 0.5
2017-Sep-11 18:29N 04°29' W 002°34'0 0.1
2017-Sep-11 18:00N 04°29' W 002°34'0 0.3
2017-Sep-11 17:30N 04°29' W 002°34'0 0.1
2017-Sep-11 17:00N 04°29' W 002°34'0 0.1
2017-Sep-11 16:29N 04°30' W 002°34'0 0.1
2017-Sep-11 15:59N 04°29' W 002°34'0 0.3
2017-Sep-11 15:30N 04°29' W 002°34'0 0.5
2017-Sep-11 15:00N 04°29' W 002°34'0 0.1
2017-Sep-11 14:29N 04°29' W 002°34'0 0.3
2017-Sep-11 13:59N 04°29' W 002°34'0 0.4
2017-Sep-11 13:25N 04°29' W 002°34'0 0.5
2017-Sep-11 12:59N 04°29' W 002°34'0 0.2
2017-Sep-11 12:30N 04°29' W 002°34'0 0.5
2017-Sep-11 12:00N 04°29' W 002°34'0 0.5
2017-Sep-11 11:29N 04°29' W 002°34'0 0.4
2017-Sep-11 10:59N 04°29' W 002°34'0 0.3
2017-Sep-11 10:30N 04°29' W 002°35'0 0.1
2017-Sep-11 10:00N 04°29' W 002°35'0 0.4
2017-Sep-11 09:29N 04°29' W 002°35'0 0.8
2017-Sep-11 08:59N 04°29' W 002°35'0 0.7
2017-Sep-11 08:29N 04°29' W 002°34'0 0.4
2017-Sep-11 08:00N 04°29' W 002°34'0 0.3
2017-Sep-11 07:30N 04°28' W 002°34'0 0.2
2017-Sep-11 06:59N 04°28' W 002°34'0 0.3
2017-Sep-11 06:29N 04°28' W 002°34'0 0.3
2017-Sep-11 05:59N 04°28' W 002°34'0 0.5
2017-Sep-11 05:30N 04°28' W 002°34'0 0.1
2017-Sep-11 05:00N 04°28' W 002°34'0 0.3
2017-Sep-11 04:30N 04°28' W 002°34'0 0.5
2017-Sep-11 03:59N 04°29' W 002°34'0 0.4
2017-Sep-11 03:29N 04°29' W 002°34'0 0.3
2017-Sep-11 02:58N 04°29' W 002°34'0 0.5
2017-Sep-11 02:30N 04°29' W 002°34'0 0.5
2017-Sep-11 01:59N 04°29' W 002°35'0 0.7
2017-Sep-11 01:30N 04°29' W 002°35'0 0.3
2017-Sep-11 01:00N 04°29' W 002°35'0 0.6
2017-Sep-11 00:30N 04°30' W 002°35'0 0.6
2017-Sep-10 23:59N 04°30' W 002°34'0 0.7
2017-Sep-10 23:30N 04°29' W 002°34'0 0.2
2017-Sep-10 23:00N 04°29' W 002°34'1 2.0
2017-Sep-10 22:29N 04°28' W 002°35'0 0.9
2017-Sep-10 21:59N 04°28' W 002°35'0 0.8
2017-Sep-10 21:30N 04°28' W 002°35'1 1.3
2017-Sep-10 21:00N 04°29' W 002°35'0 0.5
2017-Sep-10 20:30N 04°29' W 002°35'0 0.5
2017-Sep-10 19:59N 04°29' W 002°35'1 1.0
2017-Sep-10 19:29N 04°29' W 002°34'1 1.3
2017-Sep-10 18:58N 04°30' W 002°34'0 0.6
2017-Sep-10 18:30N 04°30' W 002°34'1 1.1
2017-Sep-10 18:00N 04°30' W 002°34'0 0.6
2017-Sep-10 17:30N 04°30' W 002°34'0 0.6
2017-Sep-10 16:57N 04°29' W 002°34'0 0.4
2017-Sep-10 16:29N 04°29' W 002°33'0 0.4
2017-Sep-10 15:59N 04°29' W 002°33'0 0.4
2017-Sep-10 15:30N 04°29' W 002°33'0 0.4
2017-Sep-10 15:00N 04°30' W 002°33'0 0.3
2017-Sep-10 13:59N 04°30' W 002°33'0 0.5
2017-Sep-10 13:29N 04°30' W 002°33'0 0.5
2017-Sep-10 13:00N 04°30' W 002°34'0 0.3
2017-Sep-10 12:30N 04°30' W 002°34'0 0.4
2017-Sep-10 12:00N 04°30' W 002°34'0 0.5
2017-Sep-10 11:30N 04°30' W 002°34'0 0.9
2017-Sep-10 10:59N 04°30' W 002°35'0 0.4
2017-Sep-10 10:29N 04°29' W 002°35'0 0.6
2017-Sep-10 09:59N 04°29' W 002°34'0 0.5
2017-Sep-10 09:25N 04°29' W 002°34'0 0.4
2017-Sep-10 08:59N 04°29' W 002°34'0 0.4
2017-Sep-10 08:29N 04°29' W 002°34'0 0.4
2017-Sep-10 08:00N 04°28' W 002°34'0 0.2
2017-Sep-10 07:30N 04°28' W 002°34'0 0.1
2017-Sep-10 06:58N 04°28' W 002°34'0 0.2
2017-Sep-10 06:30N 04°28' W 002°34'0 0.1
2017-Sep-10 05:59N 04°28' W 002°34'0 0.4
2017-Sep-10 05:31N 04°28' W 002°34'0 0.5
2017-Sep-10 05:00N 04°28' W 002°34'0 0.7
2017-Sep-10 04:30N 04°28' W 002°35'0 0.3
2017-Sep-10 03:59N 04°28' W 002°35'0 0.3
2017-Sep-10 03:27N 04°28' W 002°35'0 0.3
2017-Sep-10 03:01N 04°28' W 002°35'0 0.4
2017-Sep-10 02:30N 04°28' W 002°34'0 0.3
2017-Sep-10 02:00N 04°28' W 002°35'0 0.3
2017-Sep-10 01:30N 04°28' W 002°34'0 0.4
2017-Sep-10 01:00N 04°28' W 002°34'0 0.6
2017-Sep-10 00:29N 04°29' W 002°34'0 0.6
2017-Sep-09 23:59N 04°29' W 002°34'0 0.5
2017-Sep-09 23:29N 04°29' W 002°34'0 0.5
2017-Sep-09 23:00N 04°29' W 002°34'0 0.7
2017-Sep-09 22:30N 04°29' W 002°33'0 0.7
2017-Sep-09 21:59N 04°30' W 002°33'0 0.7
2017-Sep-09 21:31N 04°30' W 002°33'0 0.4
2017-Sep-09 21:00N 04°30' W 002°33'0 0.6
2017-Sep-09 20:30N 04°30' W 002°33'0 0.4
2017-Sep-09 20:00N 04°30' W 002°33'0 0.5
2017-Sep-09 19:29N 04°29' W 002°33'0 0.7
2017-Sep-09 18:59N 04°29' W 002°33'2 0.0
2017-Sep-08 02:12N 04°28' W 002°35'0 0.3
2017-Sep-08 01:58N 04°28' W 002°35'0 0.3
2017-Sep-08 01:29N 04°28' W 002°35'0 0.4
2017-Sep-08 01:00N 04°28' W 002°35'0 0.3
2017-Sep-08 00:30N 04°28' W 002°35'0 0.5
2017-Sep-08 00:00N 04°28' W 002°34'0 0.5
2017-Sep-07 23:29N 04°28' W 002°35'0 0.6
2017-Sep-07 22:59N 04°28' W 002°35'1 1.6
2017-Sep-07 22:30N 04°29' W 002°35'0 0.8
2017-Sep-07 21:59N 04°28' W 002°35'0 0.8
2017-Sep-07 21:29N 04°28' W 002°35'0 1.0
2017-Sep-07 20:59N 04°28' W 002°35'  

Dump ship's entire track history